createdAt,value
2023-03-17T00:02:50.679Z,-0.94
2023-03-17T00:05:54.565Z,-0.87
2023-03-17T00:08:58.274Z,-1.05
2023-03-17T00:12:01.349Z,-0.88
2023-03-17T00:15:04.212Z,-0.86
2023-03-17T00:18:13.561Z,-1.01
2023-03-17T00:21:24.981Z,-0.81
2023-03-17T00:24:28.945Z,-1.03
2023-03-17T00:27:31.604Z,-1.21
2023-03-17T00:30:34.793Z,-1.22
2023-03-17T00:33:37.438Z,-1.24
2023-03-17T00:36:49.747Z,-1.24
2023-03-17T00:39:52.383Z,-1.16
2023-03-17T00:42:55.914Z,-1.17
2023-03-17T00:45:58.515Z,-1.04
2023-03-17T00:49:03.110Z,-0.86
2023-03-17T00:52:06.270Z,-0.94
2023-03-17T00:55:10.701Z,-1.31
2023-03-17T00:58:31.760Z,-1.29
2023-03-17T01:01:34.940Z,-1.20
2023-03-17T01:04:37.846Z,-0.98
2023-03-17T01:07:41.435Z,-1.08
2023-03-17T01:10:44.344Z,-1.33
2023-03-17T01:13:47.808Z,-1.23
2023-03-17T01:16:50.653Z,-1.38
2023-03-17T01:19:53.754Z,-1.44
2023-03-17T01:22:56.384Z,-1.27
2023-03-17T01:25:59.368Z,-1.33
2023-03-17T01:29:02.853Z,-1.43
2023-03-17T01:32:06.535Z,-1.62
2023-03-17T01:35:09.283Z,-1.58
2023-03-17T01:38:12.905Z,-1.64
2023-03-17T01:41:17.842Z,-1.37
2023-03-17T01:44:20.797Z,-1.61
2023-03-17T01:47:25.636Z,-1.71
2023-03-17T01:50:29.612Z,-1.80
2023-03-17T01:53:34.787Z,-1.85
2023-03-17T01:56:40.897Z,-1.90
2023-03-17T01:59:48.596Z,-1.77
2023-03-17T02:02:55.566Z,-1.58
2023-03-17T02:05:59.157Z,-1.64
2023-03-17T02:09:02.082Z,-1.66
2023-03-17T02:12:07.036Z,-1.96
2023-03-17T02:15:11.609Z,-1.92
2023-03-17T02:18:15.524Z,-1.98
2023-03-17T02:21:31.401Z,-2.15
2023-03-17T02:24:43.363Z,-2.15
2023-03-17T02:27:50.327Z,-2.19
2023-03-17T02:30:55.446Z,-2.20
2023-03-17T02:33:58.080Z,-2.00
2023-03-17T02:37:02.052Z,-1.84
2023-03-17T02:40:07.784Z,-1.87
2023-03-17T02:43:10.809Z,-1.87
2023-03-17T02:46:13.510Z,-1.97
2023-03-17T02:49:17.843Z,-1.90
2023-03-17T02:52:20.972Z,-2.07
2023-03-17T02:55:23.868Z,-2.20
2023-03-17T02:58:26.495Z,-2.30
2023-03-17T03:01:30.994Z,-1.99
2023-03-17T03:04:33.804Z,-2.23
2023-03-17T03:07:36.760Z,-2.19
2023-03-17T03:10:39.378Z,-2.33
2023-03-17T03:13:42.654Z,-2.30
2023-03-17T03:16:45.493Z,-1.95
2023-03-17T03:19:49.749Z,-2.09
2023-03-17T03:22:52.669Z,-1.90
2023-03-17T03:25:55.948Z,-2.04
2023-03-17T03:29:00.100Z,-2.20
2023-03-17T03:32:03.284Z,-2.31
2023-03-17T03:35:06.539Z,-2.47
2023-03-17T03:38:09.478Z,-2.57
2023-03-17T03:41:13.127Z,-2.71
2023-03-17T03:44:16.228Z,-2.62
2023-03-17T03:47:18.831Z,-2.66
2023-03-17T03:50:22.508Z,-2.68
2023-03-17T03:53:28.387Z,-2.51
2023-03-17T03:56:31.399Z,-2.67
2023-03-17T03:59:34.051Z,-2.44
2023-03-17T04:02:37.491Z,-2.51
2023-03-17T04:05:40.855Z,-2.73
2023-03-17T04:08:43.821Z,-2.25
2023-03-17T04:11:47.142Z,-2.33
2023-03-17T04:14:49.737Z,-2.43
2023-03-17T04:17:55.068Z,-2.62
2023-03-17T04:20:57.931Z,-2.65
2023-03-17T04:24:00.818Z,-2.76
2023-03-17T04:27:05.944Z,-2.55
2023-03-17T04:30:13.644Z,-2.46
2023-03-17T04:33:16.822Z,-2.42
2023-03-17T04:36:24.086Z,-2.60
2023-03-17T04:39:27.616Z,-2.75
2023-03-17T04:42:30.781Z,-2.81
2023-03-17T04:45:33.391Z,-3.05
2023-03-17T04:48:36.992Z,-2.71
2023-03-17T04:51:39.642Z,-2.82
2023-03-17T04:54:42.586Z,-3.10
2023-03-17T04:57:45.195Z,-2.74
2023-03-17T05:00:48.376Z,-2.82
2023-03-17T05:03:51.662Z,-2.54
2023-03-17T05:06:54.739Z,-2.97
2023-03-17T05:09:58.050Z,-3.14
2023-03-17T05:13:01.139Z,-3.13
2023-03-17T05:16:03.854Z,-2.88
2023-03-17T05:19:07.054Z,-2.92
2023-03-17T05:22:09.796Z,-2.69
2023-03-17T05:25:13.292Z,-2.37
2023-03-17T05:28:15.930Z,-2.43
2023-03-17T05:31:19.316Z,-2.21
2023-03-17T05:34:22.121Z,-2.28
2023-03-17T05:37:25.788Z,-2.22
2023-03-17T05:40:28.655Z,-2.13
2023-03-17T05:43:31.903Z,-1.94
2023-03-17T05:46:34.687Z,-1.85
2023-03-17T05:49:37.682Z,-1.65
2023-03-17T05:52:40.613Z,-1.70
2023-03-17T05:55:43.599Z,-1.64
2023-03-17T05:58:46.293Z,-1.31
2023-03-17T06:01:49.316Z,-0.99
2023-03-17T06:04:52.284Z,-0.88
2023-03-17T06:07:56.485Z,-0.72
2023-03-17T06:10:59.602Z,-0.50
2023-03-17T06:14:02.311Z,-0.11
2023-03-17T06:17:05.598Z,0.39
2023-03-17T06:20:09.115Z,0.50
2023-03-17T06:23:12.088Z,1.23
2023-03-17T06:26:14.624Z,1.27
2023-03-17T06:29:17.596Z,1.68
2023-03-17T06:32:21.211Z,2.29
2023-03-17T06:35:25.310Z,2.07
2023-03-17T06:38:28.449Z,2.29
2023-03-17T06:41:31.506Z,2.40
2023-03-17T06:44:34.698Z,2.47
2023-03-17T06:47:38.290Z,2.86
2023-03-17T06:50:41.209Z,2.85
2023-03-17T06:53:44.754Z,2.88
2023-03-17T06:56:47.857Z,3.44
2023-03-17T06:59:51.210Z,3.15
2023-03-17T07:02:54.179Z,3.40
2023-03-17T07:05:58.137Z,4.13
2023-03-17T07:09:02.281Z,3.80
2023-03-17T07:12:06.073Z,3.94
2023-03-17T07:15:09.546Z,4.27
2023-03-17T07:18:12.384Z,4.44
2023-03-17T07:21:15.679Z,4.05
2023-03-17T07:24:18.632Z,3.97
2023-03-17T07:27:23.204Z,4.46
2023-03-17T07:30:26.880Z,4.93
2023-03-17T07:33:30.997Z,4.96
2023-03-17T07:36:34.389Z,5.09
2023-03-17T07:39:37.152Z,4.96
2023-03-17T07:42:40.090Z,5.78
2023-03-17T07:45:44.376Z,5.31
2023-03-17T07:48:47.563Z,5.68
2023-03-17T07:51:50.659Z,5.42
2023-03-17T07:54:54.626Z,5.49
2023-03-17T07:57:57.651Z,5.34
2023-03-17T08:01:00.803Z,5.62
2023-03-17T08:04:05.020Z,6.03
2023-03-17T08:07:07.939Z,6.00
2023-03-17T08:10:13.344Z,5.93
2023-03-17T08:13:16.663Z,6.08
2023-03-17T08:16:19.603Z,6.09
2023-03-17T08:19:22.873Z,6.41
2023-03-17T08:22:25.820Z,6.15
2023-03-17T08:25:29.700Z,6.27
2023-03-17T08:28:32.825Z,6.37
2023-03-17T08:31:36.593Z,6.25
2023-03-17T08:34:39.512Z,6.73
2023-03-17T08:37:46.303Z,6.53
2023-03-17T08:40:51.062Z,6.52
2023-03-17T08:43:54.765Z,6.74
2023-03-17T08:46:57.993Z,7.42
2023-03-17T08:50:01.183Z,7.45
2023-03-17T08:53:04.423Z,7.00
2023-03-17T08:56:08.456Z,7.61
2023-03-17T08:59:12.547Z,7.47
2023-03-17T09:02:16.012Z,7.56
2023-03-17T09:05:19.640Z,7.38
2023-03-17T09:08:22.954Z,7.56
2023-03-17T09:11:28.802Z,7.24
2023-03-17T09:14:40.340Z,7.34
2023-03-17T09:17:46.147Z,7.30
2023-03-17T09:20:49.046Z,7.48
2023-03-17T09:23:52.496Z,7.57
2023-03-17T09:26:55.499Z,7.63
2023-03-17T09:29:58.466Z,7.39
2023-03-17T09:33:01.372Z,7.66
2023-03-17T09:36:05.412Z,7.85
2023-03-17T09:39:08.926Z,7.91
2023-03-17T09:42:18.736Z,7.85
2023-03-17T09:45:43.681Z,7.87
2023-03-17T09:48:57.443Z,8.42
2023-03-17T09:52:00.158Z,8.43
2023-03-17T09:55:08.418Z,8.77
2023-03-17T09:58:11.985Z,8.72
2023-03-17T10:01:14.930Z,8.90
2023-03-17T10:04:18.970Z,9.52
2023-03-17T10:07:39.314Z,8.80
2023-03-17T10:11:06.909Z,8.38
2023-03-17T10:14:21.625Z,8.25
2023-03-17T10:17:52.537Z,9.39
2023-03-17T10:21:02.295Z,8.42
2023-03-17T10:24:06.446Z,8.58
2023-03-17T10:27:12.536Z,8.92
2023-03-17T10:30:20.529Z,9.03
2023-03-17T10:33:23.320Z,8.86
2023-03-17T10:36:40.138Z,9.27
2023-03-17T10:39:56.172Z,9.12
2023-03-17T10:43:08.117Z,9.08
2023-03-17T10:46:30.014Z,8.84
2023-03-17T10:49:37.150Z,9.20
2023-03-17T10:52:40.939Z,8.96
2023-03-17T10:55:50.445Z,9.06
2023-03-17T10:58:55.630Z,9.05
2023-03-17T11:02:00.703Z,9.06
2023-03-17T11:05:07.665Z,8.84
2023-03-17T11:08:19.076Z,9.05
2023-03-17T11:11:30.921Z,9.43
2023-03-17T11:14:35.397Z,9.59
2023-03-17T11:17:46.026Z,9.12
2023-03-17T11:21:30.707Z,9.85
2023-03-17T11:24:41.603Z,9.41
2023-03-17T11:28:01.482Z,9.17
2023-03-17T11:31:46.833Z,9.59
2023-03-17T11:35:01.612Z,9.37
2023-03-17T11:38:13.133Z,9.52
2023-03-17T11:41:31.479Z,9.59
2023-03-17T11:44:40.478Z,9.66
2023-03-17T11:47:52.331Z,9.72
2023-03-17T11:51:02.138Z,9.88
2023-03-17T11:54:11.096Z,9.95
2023-03-17T11:57:36.755Z,9.93
2023-03-17T12:00:45.608Z,10.00
2023-03-17T12:04:09.700Z,10.04
2023-03-17T12:07:37.574Z,9.68
2023-03-17T12:10:50.639Z,9.83
2023-03-17T12:13:58.652Z,9.89
2023-03-17T12:17:17.309Z,10.10
2023-03-17T12:20:28.173Z,9.94
2023-03-17T12:23:49.750Z,10.17
2023-03-17T12:27:07.621Z,10.16
2023-03-17T12:30:45.855Z,10.33
2023-03-17T12:33:52.669Z,10.40
2023-03-17T12:36:55.847Z,10.45
2023-03-17T12:40:07.237Z,10.14
2023-03-17T12:43:21.458Z,10.13
2023-03-17T12:46:40.564Z,10.44
2023-03-17T12:50:09.486Z,10.47
2023-03-17T12:53:29.656Z,10.26
2023-03-17T12:56:34.676Z,9.99
2023-03-17T12:59:42.036Z,10.05
2023-03-17T13:02:50.866Z,10.32
2023-03-17T13:06:03.525Z,10.58
2023-03-17T13:09:31.909Z,10.59
2023-03-17T13:12:40.441Z,10.38
2023-03-17T13:15:43.486Z,10.07
2023-03-17T13:18:48.093Z,10.57
2023-03-17T13:21:52.418Z,10.70
2023-03-17T13:25:13.533Z,10.93
2023-03-17T13:28:24.413Z,10.49
2023-03-17T13:31:27.087Z,10.91
2023-03-17T13:34:30.567Z,11.17
2023-03-17T13:37:58.231Z,11.21
2023-03-17T13:41:13.373Z,11.19
2023-03-17T13:44:34.720Z,10.58
2023-03-17T13:47:42.568Z,10.68
2023-03-17T13:50:46.743Z,10.53
2023-03-17T13:53:54.805Z,10.57
2023-03-17T13:57:18.774Z,10.38
2023-03-17T14:00:25.955Z,10.59
2023-03-17T14:03:43.663Z,10.71
2023-03-17T14:06:50.252Z,10.73
2023-03-17T14:09:59.096Z,10.72
2023-03-17T14:13:23.206Z,10.95
2023-03-17T14:16:29.989Z,11.08
2023-03-17T14:19:33.481Z,10.89
2023-03-17T14:22:43.788Z,10.60
2023-03-17T14:25:47.803Z,10.53
2023-03-17T14:28:51.153Z,10.55
2023-03-17T14:32:15.979Z,10.67
2023-03-17T14:35:20.021Z,10.92
2023-03-17T14:38:22.601Z,10.97
2023-03-17T14:41:28.098Z,10.84
2023-03-17T14:44:42.680Z,10.53
2023-03-17T14:47:45.741Z,10.40
2023-03-17T14:50:55.177Z,10.53
2023-03-17T14:54:00.997Z,10.77
2023-03-17T14:57:14.318Z,10.49
2023-03-17T15:00:34.232Z,10.44
2023-03-17T15:03:42.370Z,10.42
2023-03-17T15:07:09.423Z,10.47
2023-03-17T15:10:20.941Z,10.40
2023-03-17T15:13:26.911Z,10.36
2023-03-17T15:16:34.055Z,10.19
2023-03-17T15:19:42.617Z,10.33
2023-03-17T15:22:49.898Z,10.26
2023-03-17T15:25:58.437Z,10.24
2023-03-17T15:29:01.475Z,10.07
2023-03-17T15:32:11.886Z,10.04
2023-03-17T15:35:14.558Z,9.83
2023-03-17T15:38:17.910Z,9.82
2023-03-17T15:41:21.013Z,9.80
2023-03-17T15:44:23.930Z,9.84
2023-03-17T15:47:29.130Z,10.00
2023-03-17T15:50:33.779Z,10.07
2023-03-17T15:53:36.589Z,9.82
2023-03-17T15:56:39.888Z,9.78
2023-03-17T15:59:43.081Z,9.69
2023-03-17T16:02:48.165Z,9.66
2023-03-17T16:05:51.074Z,9.74
2023-03-17T16:08:53.649Z,9.69
2023-03-17T16:11:56.574Z,9.67
2023-03-17T16:15:00.734Z,9.66
2023-03-17T16:18:10.709Z,9.56
2023-03-17T16:21:13.831Z,9.41
2023-03-17T16:24:22.852Z,9.46
2023-03-17T16:27:25.853Z,9.38
2023-03-17T16:30:31.599Z,9.21
2023-03-17T16:33:39.339Z,9.14
2023-03-17T16:36:43.953Z,9.07
2023-03-17T16:39:46.625Z,9.04
2023-03-17T16:42:51.266Z,9.03
2023-03-17T16:45:57.070Z,8.95
2023-03-17T16:49:00.698Z,8.85
2023-03-17T16:52:05.109Z,8.74
2023-03-17T16:55:09.853Z,8.63
2023-03-17T16:58:17.902Z,8.38
2023-03-17T17:01:24.910Z,8.23
2023-03-17T17:04:27.782Z,8.12
2023-03-17T17:07:30.683Z,7.94
2023-03-17T17:10:34.707Z,7.76
2023-03-17T17:13:37.633Z,7.58
2023-03-17T17:16:40.514Z,7.49
2023-03-17T17:19:44.186Z,7.48
2023-03-17T17:22:47.336Z,7.40
2023-03-17T17:25:50.987Z,7.17
2023-03-17T17:28:54.126Z,7.06
2023-03-17T17:31:57.473Z,7.03
2023-03-17T17:35:00.950Z,6.81
2023-03-17T17:38:05.394Z,6.83
2023-03-17T17:41:10.756Z,6.62
2023-03-17T17:44:14.013Z,6.53
2023-03-17T17:47:17.258Z,6.37
2023-03-17T17:50:26.537Z,6.31
2023-03-17T17:53:29.459Z,6.10
2023-03-17T17:56:36.687Z,6.14
2023-03-17T17:59:39.927Z,6.19
2023-03-17T18:02:43.865Z,6.15
2023-03-17T18:05:47.074Z,5.78
2023-03-17T18:08:50.330Z,5.78
2023-03-17T18:11:53.601Z,5.51
2023-03-17T18:14:56.931Z,5.23
2023-03-17T18:18:00.176Z,5.24
2023-03-17T18:21:03.072Z,5.07
2023-03-17T18:24:06.481Z,5.11
2023-03-17T18:27:09.541Z,4.99
2023-03-17T18:30:19.477Z,5.03
2023-03-17T18:33:22.597Z,4.89
2023-03-17T18:36:27.602Z,4.67
2023-03-17T18:39:32.634Z,4.65
2023-03-17T18:42:36.439Z,4.42
2023-03-17T18:45:39.594Z,4.36
2023-03-17T18:48:42.872Z,4.12
2023-03-17T18:51:46.075Z,3.87
2023-03-17T18:54:49.341Z,3.77
2023-03-17T18:57:52.405Z,3.71
2023-03-17T19:01:01.549Z,3.62
2023-03-17T19:04:06.702Z,3.63
2023-03-17T19:07:09.858Z,3.48
2023-03-17T19:10:14.304Z,3.51
2023-03-17T19:13:17.616Z,3.30
2023-03-17T19:16:21.049Z,3.41
2023-03-17T19:19:24.368Z,3.61
2023-03-17T19:22:27.709Z,3.41
2023-03-17T19:25:31.279Z,3.23
2023-03-17T19:28:34.566Z,3.20
2023-03-17T19:31:41.708Z,3.10
2023-03-17T19:34:44.723Z,3.15
2023-03-17T19:37:48.050Z,3.14
2023-03-17T19:40:51.778Z,2.94
2023-03-17T19:43:54.951Z,2.63
2023-03-17T19:46:57.986Z,2.58
2023-03-17T19:50:01.379Z,2.60
2023-03-17T19:53:04.637Z,2.32
2023-03-17T19:56:08.197Z,2.19
2023-03-17T19:59:11.571Z,2.42
2023-03-17T20:02:16.712Z,2.45
2023-03-17T20:05:20.099Z,2.23
2023-03-17T20:08:24.730Z,2.22
2023-03-17T20:11:28.375Z,2.35
2023-03-17T20:14:32.002Z,2.29
2023-03-17T20:17:35.443Z,2.05
2023-03-17T20:20:38.681Z,2.12
2023-03-17T20:23:42.019Z,1.99
2023-03-17T20:26:48.897Z,1.78
2023-03-17T20:29:52.340Z,1.82
2023-03-17T20:33:01.227Z,1.55
2023-03-17T20:36:05.102Z,1.67
2023-03-17T20:39:09.639Z,1.78
2023-03-17T20:42:14.789Z,1.64
2023-03-17T20:45:18.456Z,1.66
2023-03-17T20:48:21.645Z,1.73
2023-03-17T20:51:26.073Z,1.70
2023-03-17T20:54:30.140Z,1.44
2023-03-17T20:57:35.530Z,1.17
2023-03-17T21:00:38.944Z,1.08
2023-03-17T21:03:43.408Z,1.01
2023-03-17T21:06:48.670Z,1.10
2023-03-17T21:09:52.033Z,1.04
2023-03-17T21:12:55.350Z,0.95
2023-03-17T21:15:58.051Z,1.09
2023-03-17T21:19:01.183Z,1.04
2023-03-17T21:22:05.456Z,0.98
2023-03-17T21:25:10.220Z,0.96
2023-03-17T21:28:13.734Z,1.01
2023-03-17T21:31:17.423Z,1.20
2023-03-17T21:34:20.844Z,0.83
2023-03-17T21:37:24.017Z,0.78
2023-03-17T21:40:31.308Z,0.65
2023-03-17T21:43:34.434Z,0.70
2023-03-17T21:46:37.310Z,0.76
2023-03-17T21:49:41.402Z,0.76
2023-03-17T21:52:44.840Z,0.56
2023-03-17T21:55:48.929Z,0.58
2023-03-17T21:58:52.255Z,0.74
2023-03-17T22:01:55.395Z,0.37
2023-03-17T22:04:58.327Z,0.48
2023-03-17T22:08:00.893Z,0.45
2023-03-17T22:11:08.359Z,0.29
2023-03-17T22:14:13.357Z,0.45
2023-03-17T22:17:16.869Z,0.23
2023-03-17T22:20:19.613Z,0.46
2023-03-17T22:23:23.865Z,0.66
2023-03-17T22:26:27.910Z,0.59
2023-03-17T22:29:31.582Z,0.40
2023-03-17T22:32:34.375Z,0.39
2023-03-17T22:35:38.093Z,0.24
2023-03-17T22:38:41.443Z,0.46
2023-03-17T22:41:44.337Z,0.35
2023-03-17T22:44:46.950Z,0.19
2023-03-17T22:47:50.069Z,0.17
2023-03-17T22:50:52.714Z,0.28
2023-03-17T22:53:56.359Z,0.33
2023-03-17T22:56:59.068Z,0.15
2023-03-17T23:00:03.819Z,0.39
2023-03-17T23:03:06.765Z,0.03
2023-03-17T23:06:11.530Z,-0.16
2023-03-17T23:09:14.577Z,0.08
2023-03-17T23:12:17.864Z,-0.20
2023-03-17T23:15:21.514Z,-0.40
2023-03-17T23:18:24.580Z,-0.25
2023-03-17T23:21:33.439Z,0.03
2023-03-17T23:24:36.638Z,-0.16
2023-03-17T23:27:39.882Z,-0.26
2023-03-17T23:30:44.063Z,-0.22
2023-03-17T23:33:48.223Z,0.02
2023-03-17T23:36:51.775Z,0.14
2023-03-17T23:39:55.108Z,-0.08
2023-03-17T23:42:58.138Z,-0.28
2023-03-17T23:46:01.380Z,-0.41
2023-03-17T23:49:07.258Z,-0.39
2023-03-17T23:52:11.321Z,-0.59
2023-03-17T23:55:16.116Z,-0.46
2023-03-17T23:58:18.870Z,-0.55
